Time;durP1;ratioP1;P1;durP2;ratioP2;P2;SDS_P1;SDS_P2;PMS_P1;PMS_P2;Temp;Humidity;BMP_temperature;BMP_pressure;BME280_temperature;BME280_humidity;BME280_pressure;Samples;Min_cycle;Max_cycle;Signal;HPM_P1;HPM_P2
2021/10/18 00:00:16;;;;;;;26.20;18.80;;;;;;;6.44;79.25;100840.67;88689;1277;80865;-61
2021/10/18 00:02:44;;;;;;;26.80;18.10;;;;;;;6.46;79.07;100842.29;88638;1278;99442;-61
2021/10/18 00:04:52;;;;;;;25.00;16.90;;;;;;;6.48;79.22;100843.22;88647;1277;87778;-61
2021/10/18 00:06:59;;;;;;;29.30;18.30;;;;;;;6.53;79.28;100841.27;88670;1278;94434;-59
2021/10/18 00:09:10;;;;;;;24.20;18.00;;;;;;;6.57;79.30;100845.73;88603;1278;82272;-60
2021/10/18 00:11:18;;;;;;;26.80;18.80;;;;;;;6.62;79.30;100847.04;88733;1278;82130;-60
2021/10/18 00:13:29;;;;;;;23.30;16.80;;;;;;;6.67;79.44;100847.89;88626;1278;96927;-60
2021/10/18 00:15:36;;;;;;;25.60;16.70;;;;;;;6.71;79.34;100848.81;88641;1279;88470;-59
2021/10/18 00:17:44;;;;;;;24.50;16.70;;;;;;;6.73;79.50;100849.85;88634;1278;94092;-59
2021/10/18 00:19:51;;;;;;;23.50;17.60;;;;;;;6.78;79.60;100849.55;88645;1278;80677;-60
2021/10/18 00:21:59;;;;;;;25.00;16.20;;;;;;;6.83;79.42;100851.11;88664;1278;80822;-59
2021/10/18 00:24:08;;;;;;;28.50;17.30;;;;;;;6.89;79.41;100850.92;88631;1278;98110;-61
2021/10/18 00:26:16;;;;;;;27.60;17.60;;;;;;;6.93;79.32;100848.45;88675;1278;88683;-63
2021/10/18 00:28:23;;;;;;;24.90;16.60;;;;;;;6.98;79.34;100850.50;88630;1278;93429;-62
2021/10/18 00:30:31;;;;;;;23.90;16.90;;;;;;;7.02;79.25;100851.86;88587;1278;80263;-60
2021/10/18 00:32:39;;;;;;;26.30;17.80;;;;;;;7.05;79.34;100850.27;88662;1278;81356;-59
2021/10/18 00:34:46;;;;;;;23.50;16.20;;;;;;;7.03;79.14;100847.77;88644;1277;98566;-61
2021/10/18 00:36:54;;;;;;;21.90;15.80;;;;;;;7.02;79.19;100843.30;88674;1278;87728;-62
2021/10/18 00:39:01;;;;;;;25.00;17.20;;;;;;;7.05;79.04;100844.52;88619;1277;94978;-60
2021/10/18 00:41:09;;;;;;;27.20;17.40;;;;;;;7.10;78.98;100847.84;88703;1277;79457;-60
2021/10/18 00:43:19;;;;;;;22.30;17.20;;;;;;;7.07;79.18;100845.06;88638;1278;82590;-61
2021/10/18 00:45:30;;;;;;;24.90;15.80;;;;;;;7.07;79.15;100842.91;88674;1278;97816;-60
2021/10/18 00:47:38;;;;;;;25.10;15.90;;;;;;;7.08;78.98;100848.23;88473;1279;88542;-61
2021/10/18 00:49:46;;;;;;;24.00;16.60;;;;;;;7.08;79.03;100844.45;88611;1278;94389;-62
2021/10/18 00:51:53;;;;;;;23.30;15.70;;;;;;;7.10;79.16;100845.33;88634;1278;79080;-60
2021/10/18 00:54:02;;;;;;;24.50;16.10;;;;;;;7.12;79.05;100845.41;88625;1278;81548;-62
2021/10/18 00:56:10;;;;;;;22.90;16.80;;;;;;;7.17;79.17;100842.98;88721;1278;99931;-64
2021/10/18 00:58:17;;;;;;;24.10;16.80;;;;;;;7.18;79.00;100850.39;88655;1278;87896;-64
2021/10/18 01:00:25;;;;;;;22.50;16.00;;;;;;;7.19;79.05;100847.23;88615;1278;94638;-64
2021/10/18 01:02:32;;;;;;;22.80;15.80;;;;;;;7.18;79.06;100849.65;88635;1278;80222;-64
2021/10/18 01:04:40;;;;;;;23.40;16.20;;;;;;;7.20;78.98;100850.20;88607;1277;82213;-64
2021/10/18 01:06:48;;;;;;;22.60;14.90;;;;;;;7.21;78.97;100846.73;88642;1278;98713;-63
2021/10/18 01:08:56;;;;;;;25.40;16.10;;;;;;;7.22;78.94;100845.91;88743;1278;86214;-64
2021/10/18 01:11:05;;;;;;;24.20;16.40;;;;;;;7.19;78.80;100851.02;88700;1278;94626;-64
2021/10/18 01:13:13;;;;;;;24.50;15.60;;;;;;;7.14;78.85;100850.43;88640;1278;81229;-63
2021/10/18 01:15:20;;;;;;;24.40;16.00;;;;;;;7.11;78.96;100851.45;88688;1278;81534;-65
2021/10/18 01:17:28;;;;;;;20.50;16.00;;;;;;;7.10;79.10;100853.51;88656;1278;98093;-65
2021/10/18 01:19:38;;;;;;;23.70;15.40;;;;;;;7.11;79.06;100852.66;88750;1278;86039;-65
2021/10/18 01:21:46;;;;;;;24.10;16.10;;;;;;;7.13;79.17;100853.79;88753;1278;93060;-67
2021/10/18 01:23:54;;;;;;;20.20;15.60;;;;;;;7.15;79.19;100851.58;88759;1278;79367;-71
2021/10/18 01:26:01;;;;;;;26.30;16.10;;;;;;;7.18;79.18;100855.40;88761;1278;81987;-65
2021/10/18 01:28:09;;;;;;;21.80;15.00;;;;;;;7.22;79.28;100855.59;88474;1279;99244;-64
2021/10/18 01:30:16;;;;;;;20.70;14.80;;;;;;;7.22;79.22;100851.03;88670;1278;87616;-62
2021/10/18 01:32:24;;;;;;;20.40;14.50;;;;;;;7.24;79.17;100855.52;88655;1278;92962;-60
2021/10/18 01:34:35;;;;;;;21.00;15.70;;;;;;;7.24;79.26;100853.48;88597;1278;79803;-63
2021/10/18 01:36:44;;;;;;;22.90;15.80;;;;;;;7.25;79.09;100853.27;88617;1271;80691;-68
2021/10/18 01:38:51;;;;;;;23.40;15.40;;;;;;;7.24;79.28;100855.20;88609;1278;99515;-66
2021/10/18 01:40:59;;;;;;;21.10;15.70;;;;;;;7.23;79.15;100853.69;88612;1278;88268;-65
2021/10/18 01:43:06;;;;;;;23.40;15.40;;;;;;;7.22;79.12;100854.69;88640;1278;93748;-65
2021/10/18 01:45:19;;;;;;;27.10;16.00;;;;;;;7.21;79.14;100850.95;88660;1278;81205;-62
2021/10/18 01:47:27;;;;;;;24.00;15.80;;;;;;;7.26;79.20;100851.52;88649;1271;81350;-62
2021/10/18 01:49:35;;;;;;;23.80;15.50;;;;;;;7.27;79.18;100845.75;88596;1278;99000;-63
2021/10/18 01:51:43;;;;;;;22.90;15.10;;;;;;;7.29;79.28;100847.48;88622;1278;87573;-62
2021/10/18 01:53:53;;;;;;;25.00;15.70;;;;;;;7.29;79.43;100847.65;88566;1278;94763;-63
2021/10/18 01:56:01;;;;;;;24.10;15.30;;;;;;;7.30;79.32;100851.49;88616;1278;80791;-61
2021/10/18 01:58:11;;;;;;;25.00;16.10;;;;;;;7.32;79.36;100855.54;88612;1278;82620;-62
2021/10/18 02:00:20;;;;;;;20.70;15.40;;;;;;;7.34;79.37;100857.70;88684;1278;98593;-65
2021/10/18 02:02:28;;;;;;;19.80;15.50;;;;;;;7.34;79.37;100856.41;88657;1278;88485;-66
2021/10/18 02:04:35;;;;;;;20.00;14.90;;;;;;;7.33;79.28;100856.52;88579;1279;93724;-63
2021/10/18 02:06:43;;;;;;;22.30;15.20;;;;;;;7.29;79.40;100856.73;88734;1278;80709;-61
2021/10/18 02:08:50;;;;;;;21.90;15.00;;;;;;;7.26;79.33;100854.08;88715;1278;81607;-61
2021/10/18 02:11:00;;;;;;;21.90;14.90;;;;;;;7.21;79.28;100856.91;88734;1278;99743;-66
2021/10/18 02:13:08;;;;;;;19.00;14.30;;;;;;;7.18;79.25;100853.85;88645;1279;88677;-68
2021/10/18 02:15:16;;;;;;;23.60;15.90;;;;;;;7.10;79.30;100851.54;88710;1278;94783;-60
2021/10/18 02:17:23;;;;;;;24.50;16.70;;;;;;;7.04;79.27;100857.55;88629;1278;81789;-64
2021/10/18 02:19:34;;;;;;;22.40;15.10;;;;;;;6.98;79.24;100858.52;88477;1278;82372;-63
2021/10/18 02:21:41;;;;;;;25.70;15.60;;;;;;;6.93;79.28;100858.69;88738;1278;97542;-63
2021/10/18 02:23:51;;;;;;;19.10;13.80;;;;;;;6.90;79.46;100860.58;88657;1278;88607;-63
2021/10/18 02:25:59;;;;;;;21.90;15.50;;;;;;;6.88;79.61;100858.88;88609;1277;93098;-63
2021/10/18 02:28:07;;;;;;;20.80;15.00;;;;;;;6.86;79.68;100854.59;88629;1278;79488;-63
2021/10/18 02:30:16;;;;;;;22.40;15.20;;;;;;;6.81;79.62;100856.83;88695;1278;80565;-63
2021/10/18 02:32:23;;;;;;;23.60;15.40;;;;;;;6.79;79.70;100853.75;88743;1278;97655;-64
2021/10/18 02:34:33;;;;;;;20.50;14.20;;;;;;;6.77;79.67;100849.06;88707;1278;89169;-64
2021/10/18 02:36:41;;;;;;;20.80;15.30;;;;;;;6.76;79.76;100853.95;88684;1278;94991;-61
2021/10/18 02:38:48;;;;;;;24.30;15.20;;;;;;;6.74;79.86;100850.11;88620;1278;79338;-60
2021/10/18 02:40:57;;;;;;;21.30;15.00;;;;;;;6.72;79.92;100853.16;88589;1277;82799;-62
2021/10/18 02:43:04;;;;;;;19.80;14.40;;;;;;;6.71;79.93;100858.30;88573;1279;99894;-63
2021/10/18 02:45:15;;;;;;;22.30;16.10;;;;;;;6.70;79.94;100858.17;88616;1277;86414;-60
2021/10/18 02:47:22;;;;;;;23.90;15.90;;;;;;;6.73;79.94;100860.81;88658;1278;93547;-60
2021/10/18 02:49:33;;;;;;;21.30;14.40;;;;;;;6.73;80.07;100859.88;88629;1278;80172;-61
2021/10/18 02:51:40;;;;;;;20.70;15.40;;;;;;;6.73;80.24;100860.38;88719;1278;81501;-63
2021/10/18 02:53:48;;;;;;;22.50;14.70;;;;;;;6.74;80.24;100859.55;88665;1278;97626;-64
2021/10/18 02:55:55;;;;;;;22.80;14.90;;;;;;;6.74;80.25;100855.65;88639;1278;88369;-63
2021/10/18 02:58:02;;;;;;;23.20;15.20;;;;;;;6.69;80.10;100859.00;88610;1278;94103;-63
2021/10/18 03:00:13;;;;;;;21.90;15.30;;;;;;;6.62;80.27;100858.80;88669;1278;81529;-62
2021/10/18 03:02:20;;;;;;;23.50;15.40;;;;;;;6.61;80.31;100854.99;88644;1276;82153;-63
2021/10/18 03:04:28;;;;;;;24.00;15.30;;;;;;;6.64;80.38;100857.94;88625;1278;99983;-63
2021/10/18 03:06:35;;;;;;;25.50;16.30;;;;;;;6.63;80.36;100856.05;88637;1277;89209;-62
2021/10/18 03:08:43;;;;;;;21.80;15.50;;;;;;;6.60;80.36;100854.58;88619;1278;93375;-60
2021/10/18 03:10:50;;;;;;;26.80;16.60;;;;;;;6.54;80.49;100861.00;88736;1278;81904;-61
2021/10/18 03:12:58;;;;;;;25.30;15.30;;;;;;;6.51;80.39;100865.93;88636;1278;82303;-62
2021/10/18 03:15:06;;;;;;;22.40;15.30;;;;;;;6.52;80.46;100870.89;88629;1278;98978;-63
2021/10/18 03:17:16;;;;;;;25.00;16.80;;;;;;;6.49;80.54;100870.27;88653;1278;88265;-64
2021/10/18 03:19:24;;;;;;;28.40;16.40;;;;;;;6.49;80.68;100873.31;88605;1278;93391;-64
2021/10/18 03:21:31;;;;;;;23.40;15.70;;;;;;;6.47;80.55;100877.80;88657;1278;80190;-62
2021/10/18 03:23:39;;;;;;;24.00;15.80;;;;;;;6.42;80.59;100878.48;88638;1278;80970;-61
2021/10/18 03:25:46;;;;;;;23.60;15.50;;;;;;;6.38;80.80;100879.06;88668;1277;99244;-63
2021/10/18 03:27:57;;;;;;;24.30;15.30;;;;;;;6.35;80.55;100884.05;88733;1278;89085;-64
2021/10/18 03:30:10;;;;;;;21.20;16.00;;;;;;;6.34;80.74;100887.39;88729;1278;94301;-61
2021/10/18 03:32:17;;;;;;;27.30;15.80;;;;;;;6.31;80.61;100890.69;88652;1278;79440;-61
2021/10/18 03:34:28;;;;;;;25.30;15.70;;;;;;;6.29;80.71;100893.59;88636;1278;80456;-61
2021/10/18 03:36:35;;;;;;;24.20;15.60;;;;;;;6.27;80.79;100894.98;88650;1278;99773;-65
2021/10/18 03:38:43;;;;;;;22.10;14.60;;;;;;;6.26;80.74;100894.55;88627;1278;88491;-64
2021/10/18 03:40:50;;;;;;;24.10;15.90;;;;;;;6.26;80.86;100895.16;88681;1278;94258;-64
2021/10/18 03:42:58;;;;;;;25.40;16.90;;;;;;;6.24;80.97;100899.26;88625;1278;78967;-64
2021/10/18 03:45:06;;;;;;;24.20;16.10;;;;;;;6.22;81.02;100897.52;88632;1278;81110;-61
2021/10/18 03:47:14;;;;;;;28.60;16.20;;;;;;;6.19;80.93;100897.05;88727;1278;98634;-61
2021/10/18 03:49:21;;;;;;;22.70;15.60;;;;;;;6.20;80.88;100895.23;88619;1278;86641;-62
2021/10/18 03:51:29;;;;;;;25.40;15.60;;;;;;;6.18;80.98;100896.77;88592;1278;94610;-62
2021/10/18 03:53:39;;;;;;;22.00;15.10;;;;;;;6.17;81.27;100901.17;88554;1280;79705;-62
2021/10/18 03:55:47;;;;;;;22.10;16.40;;;;;;;6.19;81.42;100904.73;88704;1278;81696;-62
2021/10/18 03:57:54;;;;;;;23.90;16.30;;;;;;;6.21;81.39;100904.41;88623;1278;99176;-61
2021/10/18 04:00:02;;;;;;;25.50;16.30;;;;;;;6.23;81.44;100908.52;88656;1278;86793;-65
2021/10/18 04:02:09;;;;;;;24.60;16.80;;;;;;;6.25;81.55;100909.38;88700;1278;93595;-63
2021/10/18 04:04:20;;;;;;;23.50;15.10;;;;;;;6.26;81.42;100911.08;88614;1278;81245;-64
2021/10/18 04:06:28;;;;;;;20.40;14.70;;;;;;;6.28;81.52;100913.49;88748;1278;81863;-61
2021/10/18 04:08:37;;;;;;;23.90;16.10;;;;;;;6.29;81.55;100916.00;88627;1278;99994;-61
2021/10/18 04:10:44;;;;;;;24.90;16.20;;;;;;;6.28;81.51;100916.59;88722;1278;87032;-63
2021/10/18 04:12:52;;;;;;;26.50;17.80;;;;;;;6.27;81.52;100920.25;88647;1278;94750;-64
2021/10/18 04:14:59;;;;;;;26.00;17.60;;;;;;;6.27;81.60;100920.77;88607;1278;80217;-63
2021/10/18 04:17:07;;;;;;;26.00;15.60;;;;;;;6.29;81.72;100920.95;88768;1278;81159;-64
2021/10/18 04:19:14;;;;;;;28.10;15.90;;;;;;;6.29;81.58;100918.98;88662;1278;98288;-65
2021/10/18 04:21:22;;;;;;;25.80;16.30;;;;;;;6.29;81.78;100923.96;88734;1278;86691;-61
2021/10/18 04:23:29;;;;;;;21.50;15.00;;;;;;;6.28;81.92;100923.76;88615;1278;94873;-60
2021/10/18 04:25:37;;;;;;;25.60;16.20;;;;;;;6.25;81.87;100929.20;88715;1278;80753;-60
2021/10/18 04:27:45;;;;;;;22.20;15.40;;;;;;;6.24;81.84;100930.88;88609;1278;82014;-60
2021/10/18 04:29:52;;;;;;;23.10;15.30;;;;;;;6.25;81.70;100930.66;88636;1278;99104;-60
2021/10/18 04:31:59;;;;;;;23.90;15.20;;;;;;;6.20;81.69;100929.39;88685;1278;86784;-60
2021/10/18 04:34:07;;;;;;;24.50;15.30;;;;;;;6.16;81.80;100926.66;88621;1278;94153;-60
2021/10/18 04:36:14;;;;;;;23.00;14.90;;;;;;;6.12;81.81;100932.45;88619;1278;79167;-65
2021/10/18 04:38:22;;;;;;;25.90;15.30;;;;;;;6.09;81.91;100936.29;88630;1278;82627;-63
2021/10/18 04:40:29;;;;;;;24.10;15.10;;;;;;;6.08;81.83;100939.83;88599;1278;98666;-64
2021/10/18 04:42:36;;;;;;;22.80;14.50;;;;;;;6.07;81.83;100941.52;88623;1278;86899;-64
2021/10/18 04:44:44;;;;;;;22.90;14.50;;;;;;;6.08;81.81;100942.16;88627;1278;93395;-62
2021/10/18 04:46:51;;;;;;;23.00;15.40;;;;;;;6.07;82.02;100941.19;88698;1278;79965;-64
2021/10/18 04:48:59;;;;;;;20.60;15.20;;;;;;;6.04;81.99;100939.00;88609;1278;81777;-63
2021/10/18 04:51:06;;;;;;;21.80;15.90;;;;;;;6.02;81.91;100939.91;88724;1278;98520;-61
2021/10/18 04:53:14;;;;;;;22.60;14.10;;;;;;;5.96;81.96;100944.95;88576;1280;88130;-62
2021/10/18 04:55:21;;;;;;;27.20;15.30;;;;;;;5.92;81.98;100948.30;88707;1278;93459;-61
2021/10/18 04:57:29;;;;;;;24.80;15.30;;;;;;;5.88;81.81;100950.81;88672;1278;80490;-62
2021/10/18 04:59:36;;;;;;;25.20;15.20;;;;;;;5.85;82.20;100951.16;88580;1279;80742;-62
2021/10/18 05:01:44;;;;;;;21.70;15.00;;;;;;;5.81;81.90;100950.44;88671;1278;98273;-62
2021/10/18 05:03:51;;;;;;;20.80;14.30;;;;;;;5.73;81.95;100950.63;88633;1278;86655;-61
2021/10/18 05:05:59;;;;;;;20.90;14.60;;;;;;;5.69;81.82;100952.13;88726;1278;93364;-61
2021/10/18 05:08:09;;;;;;;23.40;14.20;;;;;;;5.68;81.91;100957.61;88648;1278;80116;-63
2021/10/18 05:10:20;;;;;;;22.80;14.40;;;;;;;5.71;81.98;100959.06;88666;1278;83293;-63
2021/10/18 05:12:27;;;;;;;21.90;15.10;;;;;;;5.70;82.06;100955.80;88628;1278;99198;-64
2021/10/18 05:14:34;;;;;;;19.40;14.40;;;;;;;5.69;82.30;100960.00;88658;1279;86985;-62
2021/10/18 05:16:42;;;;;;;25.20;15.50;;;;;;;5.70;82.25;100958.10;88616;1278;94746;-63
2021/10/18 05:18:49;;;;;;;24.80;14.50;;;;;;;5.70;82.17;100962.23;88586;1278;81572;-62
2021/10/18 05:20:57;;;;;;;20.00;14.60;;;;;;;5.70;82.28;100963.31;88720;1278;81476;-63
2021/10/18 05:23:04;;;;;;;22.00;15.40;;;;;;;5.69;82.29;100962.31;88728;1278;99857;-63
2021/10/18 05:25:13;;;;;;;21.80;14.40;;;;;;;5.73;82.35;100966.24;88765;1278;87205;-60
2021/10/18 05:27:20;;;;;;;28.00;16.20;;;;;;;5.74;82.24;100970.78;88698;1278;94014;-62
2021/10/18 05:29:30;;;;;;;23.70;15.70;;;;;;;5.73;82.26;100974.48;88649;1278;81637;-60
2021/10/18 05:31:38;;;;;;;22.50;15.70;;;;;;;5.74;82.67;100978.83;88576;1279;81185;-66
2021/10/18 05:33:46;;;;;;;21.80;14.10;;;;;;;5.74;82.50;100983.29;89751;1262;98590;-64
2021/10/18 05:35:53;;;;;;;23.60;15.30;;;;;;;5.76;82.44;100982.77;88755;1277;88072;-63
2021/10/18 05:38:02;;;;;;;20.80;13.60;;;;;;;5.77;82.47;100984.45;88759;1276;94609;-61
2021/10/18 05:40:13;;;;;;;21.20;14.20;;;;;;;5.76;82.44;100983.27;88679;1277;81097;-61
2021/10/18 05:42:21;;;;;;;24.00;14.90;;;;;;;5.73;82.41;100986.21;88707;1277;82226;-61
2021/10/18 05:44:30;;;;;;;17.80;13.50;;;;;;;5.72;82.47;100986.83;88658;1277;100411;-65
2021/10/18 05:46:38;;;;;;;24.70;14.30;;;;;;;5.76;82.66;100991.82;88638;1277;87063;-65
2021/10/18 05:48:46;;;;;;;20.90;13.50;;;;;;;5.82;82.56;100995.34;88651;1277;93759;-64
2021/10/18 05:50:53;;;;;;;20.40;13.70;;;;;;;5.90;82.78;100998.17;88692;1275;78579;-65
2021/10/18 05:53:00;;;;;;;21.80;14.60;;;;;;;5.95;82.66;101001.66;88771;1277;82561;-60
2021/10/18 05:55:10;;;;;;;26.00;15.20;;;;;;;5.98;82.62;101001.23;88731;1277;98660;-61
2021/10/18 05:57:19;;;;;;;22.90;14.30;;;;;;;6.01;82.65;101002.33;88749;1272;86882;-61
2021/10/18 05:59:27;;;;;;;22.70;13.10;;;;;;;6.09;82.79;101007.89;88750;1277;94276;-61
2021/10/18 06:01:35;;;;;;;18.30;13.70;;;;;;;6.17;82.81;101008.89;88757;1277;79292;-59
2021/10/18 06:03:43;;;;;;;19.90;13.70;;;;;;;6.20;82.88;101014.27;88744;1277;82576;-62
2021/10/18 06:05:52;;;;;;;21.00;14.20;;;;;;;6.26;82.96;101020.85;88765;1277;97460;-62
2021/10/18 06:08:18;;;;;;;23.20;15.00;;;;;;;6.33;82.93;101019.85;88760;1276;87795;-60
2021/10/18 06:10:25;;;;;;;21.20;13.90;;;;;;;6.48;83.00;101031.62;88740;1277;93517;-60
2021/10/18 06:12:32;;;;;;;21.80;14.00;;;;;;;6.66;83.01;101033.42;88684;1277;81759;-61
2021/10/18 06:14:40;;;;;;;21.20;13.90;;;;;;;6.88;83.02;101035.02;88720;1272;79632;-66
2021/10/18 06:16:47;;;;;;;19.60;13.60;;;;;;;7.02;82.95;101036.34;88748;1277;99295;-64
2021/10/18 06:18:55;;;;;;;21.20;14.00;;;;;;;7.09;82.86;101037.23;88724;1277;88049;-65
2021/10/18 06:21:03;;;;;;;20.20;13.80;;;;;;;7.18;82.87;101042.27;88891;1265;94167;-67
2021/10/18 06:23:10;;;;;;;22.60;14.50;;;;;;;7.26;82.78;101043.95;88831;1276;80843;-65
2021/10/18 06:25:18;;;;;;;19.70;13.60;;;;;;;7.33;82.81;101048.73;88826;1277;82201;-65
2021/10/18 06:27:25;;;;;;;21.10;13.90;;;;;;;7.50;82.87;101047.09;88873;1277;97574;-66
2021/10/18 06:29:33;;;;;;;23.50;14.60;;;;;;;7.75;83.06;101049.56;88901;1276;88894;-61
2021/10/18 06:31:41;;;;;;;24.20;14.90;;;;;;;8.15;83.37;101055.46;88780;1276;94822;-65
2021/10/18 06:33:48;;;;;;;24.10;15.40;;;;;;;8.48;83.09;101058.32;88650;1276;192249;-64
2021/10/18 06:35:58;;;;;;;17.20;13.60;;;;;;;8.92;83.11;101060.09;88834;1276;81037;-66
2021/10/18 06:38:15;;;;;;;19.20;13.70;;;;;;;9.34;82.88;101060.59;88825;1276;98012;-69
2021/10/18 06:40:22;;;;;;;19.70;13.50;;;;;;;9.75;82.63;101054.73;88824;1276;89538;-61
2021/10/18 06:42:30;;;;;;;20.80;14.60;;;;;;;9.97;82.25;101058.83;88792;1276;94607;-60
2021/10/18 06:44:40;;;;;;;27.20;15.50;;;;;;;10.00;81.84;101062.60;88835;1277;79444;-64
2021/10/18 06:46:47;;;;;;;21.70;15.50;;;;;;;9.92;81.43;101063.86;88801;1276;82108;-65
2021/10/18 06:48:55;;;;;;;25.00;17.80;;;;;;;9.84;81.32;101059.60;88811;1276;98345;-66
2021/10/18 06:51:06;;;;;;;20.00;13.70;;;;;;;9.77;81.17;101065.77;88878;1276;88025;-66
2021/10/18 06:53:16;;;;;;;19.80;12.60;;;;;;;9.71;81.27;101058.66;88860;1277;93679;-66
2021/10/18 06:55:28;;;;;;;20.10;13.10;;;;;;;9.76;81.12;101062.73;88827;1276;82303;-62
2021/10/18 06:57:38;;;;;;;20.10;12.30;;;;;;;9.82;81.03;101062.43;88799;1276;82638;-61
2021/10/18 06:59:51;;;;;;;17.90;12.80;;;;;;;9.91;80.89;101062.20;88724;1278;99165;-59
2021/10/18 07:01:59;;;;;;;18.80;13.20;;;;;;;10.04;80.99;101065.08;88747;1277;88381;-60
2021/10/18 07:04:18;;;;;;;17.60;12.70;;;;;;;10.25;80.77;101068.51;88771;1276;92734;-65
2021/10/18 07:06:29;;;;;;;17.30;12.30;;;;;;;10.34;80.56;101072.66;88808;1277;79944;-61
2021/10/18 07:08:36;;;;;;;16.40;12.50;;;;;;;10.32;80.43;101072.32;88765;1276;82681;-63
2021/10/18 07:10:44;;;;;;;19.50;12.00;;;;;;;10.41;80.27;101076.44;88775;1277;100117;-62
2021/10/18 07:12:52;;;;;;;18.40;12.80;;;;;;;10.43;80.20;101077.23;88779;1276;88627;-62
2021/10/18 07:15:01;;;;;;;19.20;12.20;;;;;;;10.54;80.17;101076.34;88835;1276;93473;-65
2021/10/18 07:17:09;;;;;;;16.50;11.30;;;;;;;10.57;79.93;101077.60;88835;1276;79807;-65
2021/10/18 07:19:20;;;;;;;17.10;11.40;;;;;;;10.54;79.92;101080.19;88844;1276;80818;-63
2021/10/18 07:21:27;;;;;;;16.60;12.00;;;;;;;10.60;79.87;101085.33;88825;1276;99032;-65
2021/10/18 07:23:35;;;;;;;14.80;10.60;;;;;;;10.69;79.78;101089.43;88781;1276;88950;-65
2021/10/18 07:25:44;;;;;;;15.30;10.40;;;;;;;10.76;79.72;101088.98;88843;1276;92737;-60
2021/10/18 07:27:54;;;;;;;14.70;10.10;;;;;;;10.81;79.48;101093.79;88688;1278;80959;-60
2021/10/18 07:30:02;;;;;;;13.80;9.80;;;;;;;10.82;79.26;101092.73;88789;1276;82193;-59
2021/10/18 07:32:12;;;;;;;16.10;11.40;;;;;;;10.79;79.00;101101.05;88771;1277;99562;-60
2021/10/18 07:34:19;;;;;;;12.40;9.40;;;;;;;10.74;78.85;101104.52;88775;1277;88255;-65
2021/10/18 07:36:30;;;;;;;15.40;10.60;;;;;;;10.74;78.84;101105.96;88807;1276;94985;-65
2021/10/18 07:38:41;;;;;;;15.30;10.60;;;;;;;11.56;79.41;101108.90;88769;1275;80801;-64
2021/10/18 07:40:49;;;;;;;15.20;10.50;;;;;;;12.00;78.27;101104.38;88878;1276;82412;-61
2021/10/18 07:43:01;;;;;;;15.80;10.30;;;;;;;12.89;78.24;101104.05;88864;1276;97097;-60
2021/10/18 07:45:11;;;;;;;14.50;10.00;;;;;;;13.82;77.16;101103.46;88878;1276;86501;-65
2021/10/18 07:47:19;;;;;;;13.40;9.50;;;;;;;14.10;75.89;101101.50;88875;1277;92900;-65
2021/10/18 07:49:28;;;;;;;10.30;9.10;;;;;;;14.42;75.33;101105.33;88903;1272;79047;-64
2021/10/18 07:51:36;;;;;;;12.30;9.10;;;;;;;15.22;75.07;101100.50;88918;1272;81511;-64
2021/10/18 07:53:47;;;;;;;12.00;8.40;;;;;;;16.29;73.62;101096.36;88855;1277;98667;-65
2021/10/18 07:55:54;;;;;;;11.50;8.50;;;;;;;16.51;72.36;101095.20;88883;1276;87649;-60
2021/10/18 07:58:02;;;;;;;12.00;7.80;;;;;;;17.10;71.49;101099.53;88852;1276;93345;-61
2021/10/18 08:00:15;;;;;;;11.50;7.30;;;;;;;18.61;70.09;101095.35;88841;1276;78321;-60
2021/10/18 08:02:22;;;;;;;11.90;7.30;;;;;;;19.32;68.19;101088.26;89009;1259;81147;-63
2021/10/18 08:04:31;;;;;;;10.20;7.40;;;;;;;19.50;66.72;101096.19;88870;1274;98789;-64
2021/10/18 08:06:38;;;;;;;10.30;6.50;;;;;;;19.19;65.46;101102.02;88906;1274;86908;-61
2021/10/18 08:08:56;;;;;;;10.20;7.00;;;;;;;18.25;65.18;101104.59;88831;1276;95251;-61
2021/10/18 08:11:09;;;;;;;8.40;6.10;;;;;;;17.87;65.01;101107.89;88914;1274;78796;-61
2021/10/18 08:13:19;;;;;;;9.10;6.20;;;;;;;17.59;64.81;101111.94;88925;1274;83064;-65
2021/10/18 08:15:30;;;;;;;8.70;6.20;;;;;;;16.92;64.80;101114.43;88864;1273;98625;-64
2021/10/18 08:17:37;;;;;;;8.50;5.60;;;;;;;16.43;65.00;101115.79;88933;1274;88240;-64
2021/10/18 08:19:46;;;;;;;9.00;6.00;;;;;;;16.01;65.08;101116.63;88840;1275;94509;-66
2021/10/18 08:21:53;;;;;;;8.60;6.30;;;;;;;15.56;65.47;101114.96;88891;1275;79403;-61
2021/10/18 08:24:00;;;;;;;8.50;6.30;;;;;;;15.27;65.63;101118.59;88911;1275;82292;-61
2021/10/18 08:26:08;;;;;;;9.00;6.30;;;;;;;15.05;66.14;101124.55;88819;1273;98082;-62
2021/10/18 08:28:20;;;;;;;8.60;5.90;;;;;;;14.85;66.35;101126.18;88851;1275;88956;-62
2021/10/18 08:30:28;;;;;;;10.10;7.20;;;;;;;14.75;66.53;101123.80;88643;1278;95010;-60
2021/10/18 08:32:36;;;;;;;9.10;6.00;;;;;;;14.61;66.76;101120.20;88886;1275;78941;-62
2021/10/18 08:34:47;;;;;;;8.20;6.30;;;;;;;14.51;66.92;101128.31;88895;1274;81926;-61
2021/10/18 08:36:54;;;;;;;8.80;5.80;;;;;;;14.33;67.10;101131.48;88913;1274;99930;-61
2021/10/18 08:41:32;;;;;;;10.70;6.10;;;;;;;14.12;67.64;101138.30;88839;1275;95005;-66
2021/10/18 08:46:08;;;;;;;7.80;5.30;;;;;;;14.03;67.71;101134.63;88895;1272;82359;-62
2021/10/18 08:48:19;;;;;;;7.90;5.20;;;;;;;13.80;67.74;101134.64;88862;1275;99633;-61
2021/10/18 08:50:28;;;;;;;8.60;6.00;;;;;;;13.83;67.99;101134.11;88825;1275;87134;-60
2021/10/18 08:52:36;;;;;;;8.10;5.50;;;;;;;14.20;68.35;101136.51;88930;1274;94128;-61
2021/10/18 08:54:46;;;;;;;5.80;4.70;;;;;;;15.12;67.94;101134.88;88837;1274;78248;-63
2021/10/18 08:56:54;;;;;;;7.00;4.60;;;;;;;15.80;67.24;101136.79;88900;1274;80708;-59
2021/10/18 08:59:02;;;;;;;5.60;4.70;;;;;;;16.90;66.85;101136.16;88873;1275;99136;-60
2021/10/18 09:01:10;;;;;;;6.70;4.20;;;;;;;17.92;66.00;101139.25;88917;1274;87800;-60
2021/10/18 09:03:25;;;;;;;7.00;4.30;;;;;;;19.10;65.29;101130.77;88940;1275;95472;-61
2021/10/18 09:05:33;;;;;;;6.70;4.50;;;;;;;20.11;63.91;101123.04;88852;1276;80266;-61
2021/10/18 09:07:41;;;;;;;7.10;3.70;;;;;;;20.74;62.61;101122.70;88849;1275;80669;-63
2021/10/18 09:09:54;;;;;;;6.50;3.90;;;;;;;21.24;61.44;101124.16;88932;1275;99531;-61
2021/10/18 09:12:03;;;;;;;5.10;3.50;;;;;;;21.60;60.39;101130.98;88824;1274;89159;-63
2021/10/18 09:14:13;;;;;;;5.00;3.70;;;;;;;21.58;58.18;101132.70;88820;1275;95698;-65
2021/10/18 09:16:31;;;;;;;6.80;3.80;;;;;;;21.68;58.07;101132.85;88818;1276;78607;-64
2021/10/18 09:18:39;;;;;;;4.80;3.50;;;;;;;21.93;57.45;101132.83;88900;1274;81310;-62
2021/10/18 09:20:49;;;;;;;4.40;3.00;;;;;;;22.15;56.16;101131.47;88829;1275;100047;-65
2021/10/18 09:23:23;;;;;;;4.00;2.90;;;;;;;22.26;55.56;101121.93;88855;1274;88715;-66
2021/10/18 09:25:40;;;;;;;4.60;2.90;;;;;;;22.39;55.19;101120.77;88818;1275;93817;-66
2021/10/18 09:28:06;;;;;;;4.10;2.80;;;;;;;22.61;53.96;101115.05;88913;1275;80710;-61
2021/10/18 09:30:38;;;;;;;3.30;2.30;;;;;;;23.19;53.45;101115.34;88973;1269;82793;-62
2021/10/18 09:32:55;;;;;;;4.40;2.40;;;;;;;22.29;51.54;101120.86;88949;1275;97825;-64
2021/10/18 09:35:17;;;;;;;3.20;2.20;;;;;;;21.21;51.87;101124.80;88954;1275;88097;-63
2021/10/18 09:37:24;;;;;;;5.50;2.50;;;;;;;20.23;51.66;101124.91;88899;1275;94968;-61
2021/10/18 09:39:32;;;;;;;3.00;2.30;;;;;;;19.37;52.18;101124.30;88917;1275;78922;-61
2021/10/18 09:41:44;;;;;;;3.40;2.30;;;;;;;19.17;52.83;101127.54;88870;1275;83507;-62
2021/10/18 09:44:01;;;;;;;3.70;2.60;;;;;;;18.74;52.99;101125.79;88927;1275;97457;-61
2021/10/18 09:46:16;;;;;;;4.60;2.30;;;;;;;18.36;53.37;101128.12;88675;1277;88657;-61
2021/10/18 10:52:57;;;;;;;4.20;2.40;;;;;;;14.34;57.75;101138.27;88859;1275;95729;-59
2021/10/18 10:55:26;;;;;;;3.20;1.80;;;;;;;14.08;57.99;101139.73;88798;1274;79638;-58
2021/10/18 10:57:37;;;;;;;4.30;1.80;;;;;;;14.14;58.49;101134.44;88956;1275;83049;-61
2021/10/18 10:59:55;;;;;;;4.20;2.40;;;;;;;14.28;58.61;101135.40;88828;1274;99316;-61
2021/10/18 11:02:10;;;;;;;4.70;1.90;;;;;;;14.22;58.65;101135.10;88924;1275;87885;-61